createdAt,value
2022-12-05T00:00:10.758Z,100000.28
2022-12-05T00:01:16.255Z,100003.88
2022-12-05T00:02:18.088Z,100006.72
2022-12-05T00:03:22.763Z,100012.31
2022-12-05T00:04:24.609Z,100010.63
2022-12-05T00:05:27.417Z,100008.06
2022-12-05T00:06:30.564Z,100008.25
2022-12-05T00:07:33.345Z,100013.00
2022-12-05T00:08:35.085Z,100006.84
2022-12-05T00:09:37.722Z,100010.63
2022-12-05T00:10:39.993Z,100014.34
2022-12-05T00:11:45.463Z,100011.78
2022-12-05T00:12:47.200Z,100008.41
2022-12-05T00:13:50.526Z,100014.50
2022-12-05T00:14:52.319Z,100013.66
2022-12-05T00:15:55.080Z,100005.50
2022-12-05T00:16:56.874Z,100015.50
2022-12-05T00:17:59.615Z,100016.22
2022-12-05T00:19:03.300Z,100019.63
2022-12-05T00:20:07.655Z,100023.16
2022-12-05T00:21:13.590Z,100020.97
2022-12-05T00:22:16.262Z,100018.06
2022-12-05T00:23:17.920Z,100018.75
2022-12-05T00:24:21.643Z,100015.91
2022-12-05T00:25:23.375Z,100024.75
2022-12-05T00:26:26.400Z,100018.44
2022-12-05T00:27:28.135Z,100022.88
2022-12-05T00:28:32.035Z,100022.72
2022-12-05T00:29:33.771Z,100028.16
2022-12-05T00:30:36.452Z,100027.28
2022-12-05T00:31:39.168Z,100024.41
2022-12-05T00:32:41.909Z,100032.56
2022-12-05T00:33:43.815Z,100027.97
2022-12-05T00:34:47.931Z,100031.38
2022-12-05T00:35:49.630Z,100034.78
2022-12-05T00:36:52.426Z,100043.59
2022-12-05T00:37:54.142Z,100041.72
2022-12-05T00:38:59.317Z,100045.13
2022-12-05T00:40:02.226Z,100040.56
2022-12-05T00:41:04.550Z,100040.38
2022-12-05T00:42:07.262Z,100044.78
2022-12-05T00:43:08.960Z,100040.06
2022-12-05T00:44:12.610Z,100038.19
2022-12-05T00:45:14.334Z,100044.28
2022-12-05T00:46:19.481Z,100040.56
2022-12-05T00:47:21.218Z,100041.22
2022-12-05T00:48:23.879Z,100040.22
2022-12-05T00:49:25.620Z,100041.91
2022-12-05T00:50:29.684Z,100042.59
2022-12-05T00:51:33.589Z,100048.69
2022-12-05T00:52:36.283Z,100044.13
2022-12-05T00:53:38.118Z,100046.00
2022-12-05T00:54:40.818Z,100052.28
2022-12-05T00:55:42.488Z,100050.25
2022-12-05T00:56:45.510Z,100051.09
2022-12-05T00:57:47.215Z,100051.91
2022-12-05T00:58:50.979Z,100050.06
2022-12-05T00:59:53.850Z,100054.47
2022-12-05T01:00:55.556Z,100049.91
2022-12-05T01:01:58.641Z,100049.75
2022-12-05T01:03:00.403Z,100047.88
2022-12-05T01:04:05.958Z,100055.84
2022-12-05T01:05:08.268Z,100052.09
2022-12-05T01:06:13.146Z,100052.09
2022-12-05T01:07:14.826Z,100041.25
2022-12-05T01:08:17.688Z,100052.97
2022-12-05T01:09:20.614Z,100052.97
2022-12-05T01:10:23.259Z,100059.25
2022-12-05T01:11:26.389Z,100054.66
2022-12-05T01:12:29.358Z,100060.25
2022-12-05T01:13:31.504Z,100061.13
2022-12-05T01:14:34.965Z,100055.69
2022-12-05T01:15:37.212Z,100062.81
2022-12-05T01:16:41.308Z,100057.53
2022-12-05T01:17:43.297Z,100053.81
2022-12-05T01:18:46.160Z,100061.97
2022-12-05T01:19:47.891Z,100061.97
2022-12-05T01:20:50.656Z,100062.81
2022-12-05T01:21:53.861Z,100061.97
2022-12-05T01:22:56.499Z,100063.84
2022-12-05T01:23:58.191Z,100061.13
2022-12-05T01:25:01.144Z,100061.97
2022-12-05T01:26:07.087Z,100057.53
2022-12-05T01:27:09.849Z,100057.53
2022-12-05T01:28:12.082Z,100057.53
2022-12-05T01:29:16.599Z,100064.69
2022-12-05T01:30:18.573Z,100066.53
2022-12-05T01:31:24.249Z,100072.13
2022-12-05T01:32:26.011Z,100067.56
2022-12-05T01:33:28.642Z,100077.56
2022-12-05T01:34:30.354Z,100070.28
2022-12-05T01:35:33.368Z,100079.28
2022-12-05T01:36:35.115Z,100073.84
2022-12-05T01:37:39.244Z,100080.81
2022-12-05T01:38:42.120Z,100078.09
2022-12-05T01:39:45.003Z,100078.09
2022-12-05T01:40:46.680Z,100080.63
2022-12-05T01:41:50.814Z,100081.50
2022-12-05T01:42:52.486Z,100082.34
2022-12-05T01:44:00.716Z,100087.78
2022-12-05T01:45:07.711Z,100084.06
2022-12-05T01:46:10.430Z,100082.34
2022-12-05T01:47:12.110Z,100083.19
2022-12-05T01:48:18.800Z,100084.06
2022-12-05T01:49:23.209Z,100091.19
2022-12-05T01:50:25.986Z,100087.63
2022-12-05T01:51:27.707Z,100088.63
2022-12-05T01:52:32.028Z,100090.34
2022-12-05T01:53:35.160Z,100078.63
2022-12-05T01:54:38.353Z,100084.91
2022-12-05T01:55:40.081Z,100083.19
2022-12-05T01:56:44.496Z,100088.63
2022-12-05T01:57:48.148Z,100086.75
2022-12-05T01:58:51.630Z,100086.06
2022-12-05T01:59:56.473Z,100086.06
2022-12-05T02:00:59.595Z,100087.09
2022-12-05T02:02:01.648Z,100086.41
2022-12-05T02:03:08.132Z,100089.28
2022-12-05T02:04:10.482Z,100093.03
2022-12-05T02:05:16.902Z,100084.22
2022-12-05T02:06:18.995Z,100091.50
2022-12-05T02:07:21.848Z,100091.34
2022-12-05T02:08:24.762Z,100091.34
2022-12-05T02:09:27.763Z,100094.91
2022-12-05T02:10:34.528Z,100091.16
2022-12-05T02:11:38.858Z,100087.44
2022-12-05T02:12:41.979Z,100091.84
2022-12-05T02:13:54.484Z,100093.56
2022-12-05T02:15:14.855Z,100085.22
2022-12-05T02:16:23.686Z,100080.81
2022-12-05T02:17:35.828Z,100086.25
2022-12-05T02:18:47.565Z,100085.41
2022-12-05T02:20:04.394Z,100084.56
2022-12-05T02:21:42.144Z,100087.44
2022-12-05T02:23:16.207Z,100082.00
2022-12-05T02:24:58.296Z,100087.59
2022-12-05T02:26:25.123Z,100090.50
2022-12-05T02:28:03.656Z,100090.31
2022-12-05T02:29:27.130Z,100084.22
2022-12-05T02:30:33.474Z,100082.34
2022-12-05T02:31:37.845Z,100086.06
2022-12-05T02:32:50.618Z,100084.38
2022-12-05T02:33:58.497Z,100085.38
2022-12-05T02:35:06.448Z,100072.16
2022-12-05T02:36:12.233Z,100083.16
2022-12-05T02:37:18.018Z,100086.06
2022-12-05T02:38:26.023Z,100097.94
2022-12-05T02:39:34.186Z,100090.81
2022-12-05T02:40:43.804Z,100095.56
2022-12-05T02:41:50.635Z,100097.25
2022-12-05T02:42:57.299Z,100096.25
2022-12-05T02:44:05.075Z,100089.81
2022-12-05T02:45:09.994Z,100091.50
2022-12-05T02:46:16.168Z,100093.19
2022-12-05T02:47:19.389Z,100092.38
2022-12-05T02:48:22.498Z,100087.94
2022-12-05T02:49:26.697Z,100091.50
2022-12-05T02:50:32.547Z,100095.06
2022-12-05T02:51:36.293Z,100093.03
2022-12-05T02:52:38.995Z,100093.03
2022-12-05T02:53:42.274Z,100093.88
2022-12-05T02:54:47.706Z,100092.00
2022-12-05T02:55:50.143Z,100098.13
2022-12-05T02:56:53.631Z,100095.41
2022-12-05T02:57:59.140Z,100105.25
2022-12-05T02:59:02.400Z,100096.09
2022-12-05T03:00:04.731Z,100104.94
2022-12-05T03:01:07.853Z,100103.06
2022-12-05T03:02:23.135Z,100099.31
2022-12-05T03:03:26.483Z,100102.72
2022-12-05T03:04:29.491Z,100101.72
2022-12-05T03:05:39.651Z,100098.81
2022-12-05T03:06:44.319Z,100102.22
2022-12-05T03:07:48.293Z,100095.78
2022-12-05T03:08:54.692Z,100101.22
2022-12-05T03:10:00.849Z,100105.44
2022-12-05T03:11:03.494Z,100094.56
2022-12-05T03:12:11.779Z,100103.56
2022-12-05T03:13:16.550Z,100099.84
2022-12-05T03:14:22.350Z,100101.56
2022-12-05T03:15:26.735Z,100102.41
2022-12-05T03:16:34.505Z,100104.94
2022-12-05T03:17:42.782Z,100107.50
2022-12-05T03:18:49.133Z,100108.34
2022-12-05T03:19:58.122Z,100110.91
2022-12-05T03:21:04.340Z,100112.78
2022-12-05T03:22:08.307Z,100109.00
2022-12-05T03:23:14.008Z,100109.00
2022-12-05T03:24:16.499Z,100118.88
2022-12-05T03:25:19.455Z,100111.56
2022-12-05T03:26:33.102Z,100126.88
2022-12-05T03:27:45.318Z,100114.13
2022-12-05T03:28:55.795Z,100125.00
2022-12-05T03:30:02.336Z,100124.16
2022-12-05T03:31:08.847Z,100126.88
2022-12-05T03:32:14.592Z,100128.56
2022-12-05T03:33:20.635Z,100128.56
2022-12-05T03:34:29.877Z,100127.53
2022-12-05T03:35:37.542Z,100130.09
2022-12-05T03:36:42.611Z,100134.66
2022-12-05T03:37:48.251Z,100136.22
2022-12-05T03:38:54.753Z,100140.81
2022-12-05T03:40:05.574Z,100138.09
2022-12-05T03:41:11.000Z,100133.66
2022-12-05T03:42:13.915Z,100145.38
2022-12-05T03:43:23.547Z,100144.38
2022-12-05T03:44:29.957Z,100143.38
2022-12-05T03:45:38.188Z,100142.50
2022-12-05T03:46:42.028Z,100147.09
2022-12-05T03:47:49.401Z,100144.38
2022-12-05T03:48:54.977Z,100143.53
2022-12-05T03:50:00.851Z,100140.81
2022-12-05T03:51:05.129Z,100136.22
2022-12-05T03:52:10.956Z,100138.94
2022-12-05T03:53:20.028Z,100127.06
2022-12-05T03:54:26.179Z,100136.03
2022-12-05T03:55:30.018Z,100135.00
2022-12-05T03:56:36.387Z,100135.00
2022-12-05T03:57:43.858Z,100137.72
2022-12-05T03:58:56.630Z,100141.31
2022-12-05T04:00:01.117Z,100140.28
2022-12-05T04:01:06.074Z,100135.72
2022-12-05T04:02:11.029Z,100136.56
2022-12-05T04:03:17.799Z,100135.50
2022-12-05T04:04:25.924Z,100132.78
2022-12-05T04:05:31.428Z,100130.94
2022-12-05T04:06:35.306Z,100139.09
2022-12-05T04:07:39.751Z,100144.53
2022-12-05T04:08:44.649Z,100143.50
2022-12-05T04:09:51.537Z,100143.66
2022-12-05T04:10:56.955Z,100143.50
2022-12-05T04:12:04.739Z,100149.81
2022-12-05T04:13:17.891Z,100144.38
2022-12-05T04:14:25.210Z,100142.50
2022-12-05T04:15:52.201Z,100141.50
2022-12-05T04:17:05.952Z,100140.63
2022-12-05T04:18:09.277Z,100142.50
2022-12-05T04:19:15.575Z,100134.34
2022-12-05T04:20:40.234Z,100142.50
2022-12-05T04:21:46.729Z,100142.34
2022-12-05T04:22:48.604Z,100141.50
2022-12-05T04:24:11.676Z,100145.06
2022-12-05T04:25:33.308Z,100146.94
2022-12-05T04:26:37.884Z,100148.78
2022-12-05T04:27:42.481Z,100155.25
2022-12-05T04:28:50.734Z,100157.09
2022-12-05T04:29:57.545Z,100164.25
2022-12-05T04:31:05.493Z,100165.25
2022-12-05T04:32:09.617Z,100163.41
2022-12-05T04:33:16.737Z,100162.03
2022-12-05T04:34:19.581Z,100158.81
2022-12-05T04:35:25.853Z,100158.97
2022-12-05T04:36:32.467Z,100162.72
2022-12-05T04:37:36.883Z,100166.44
2022-12-05T04:38:42.531Z,100165.28
2022-12-05T04:39:49.288Z,100167.63
2022-12-05T04:40:56.062Z,100168.66
2022-12-05T04:42:00.837Z,100172.38
2022-12-05T04:43:04.435Z,100173.38
2022-12-05T04:44:10.489Z,100174.41
2022-12-05T04:45:14.841Z,100185.44
2022-12-05T04:46:19.704Z,100178.31
2022-12-05T04:47:24.306Z,100183.75
2022-12-05T04:48:28.786Z,100183.25
2022-12-05T04:49:31.470Z,100173.72
2022-12-05T04:50:35.943Z,100171.31
2022-12-05T04:51:39.084Z,100186.09
2022-12-05T04:52:42.810Z,100177.25
2022-12-05T04:53:46.328Z,100179.31
2022-12-05T04:54:50.878Z,100175.88
2022-12-05T04:55:55.688Z,100176.91
2022-12-05T04:57:03.363Z,100173.31
2022-12-05T04:58:09.255Z,100179.97
2022-12-05T04:59:11.095Z,100177.72
2022-12-05T05:00:14.462Z,100177.38
2022-12-05T05:01:21.172Z,100182.28
2022-12-05T05:02:28.123Z,100181.09
2022-12-05T05:03:34.558Z,100184.09
2022-12-05T05:04:38.408Z,100182.19
2022-12-05T05:05:46.475Z,100184.38
2022-12-05T05:06:48.225Z,100183.31
2022-12-05T05:07:52.635Z,100182.66
2022-12-05T05:08:55.871Z,100180.94
2022-12-05T05:09:58.876Z,100179.38
2022-12-05T05:11:07.059Z,100181.22
2022-12-05T05:12:13.192Z,100183.56
2022-12-05T05:13:17.489Z,100184.91
2022-12-05T05:14:20.349Z,100181.66
2022-12-05T05:15:22.072Z,100184.88
2022-12-05T05:16:26.589Z,100184.50
2022-12-05T05:17:28.486Z,100181.22
2022-12-05T05:18:31.198Z,100179.38
2022-12-05T05:19:32.997Z,100177.84
2022-12-05T05:20:35.718Z,100184.13
2022-12-05T05:21:39.756Z,100186.31
2022-12-05T05:22:42.463Z,100186.13
2022-12-05T05:23:44.135Z,100181.72
2022-12-05T05:24:46.840Z,100181.03
2022-12-05T05:25:52.523Z,100180.31
2022-12-05T05:26:57.490Z,100184.22
2022-12-05T05:27:59.495Z,100186.09
2022-12-05T05:29:02.622Z,100184.91
2022-12-05T05:30:05.459Z,100187.59
2022-12-05T05:31:08.539Z,100178.28
2022-12-05T05:32:10.367Z,100180.81
2022-12-05T05:33:13.069Z,100175.38
2022-12-05T05:34:17.284Z,100174.38
2022-12-05T05:35:20.325Z,100173.38
2022-12-05T05:36:23.797Z,100173.38
2022-12-05T05:37:27.924Z,100177.63
2022-12-05T05:38:29.674Z,100173.19
2022-12-05T05:39:32.302Z,100174.22
2022-12-05T05:40:35.292Z,100170.97
2022-12-05T05:41:38.127Z,100174.53
2022-12-05T05:42:42.810Z,100172.66
2022-12-05T05:43:46.083Z,100168.25
2022-12-05T05:44:47.722Z,100165.25
2022-12-05T05:45:50.408Z,100167.63
2022-12-05T05:46:52.250Z,100170.19
2022-12-05T05:47:55.089Z,100169.31
2022-12-05T05:48:57.160Z,100169.47
2022-12-05T05:50:00.203Z,100175.91
2022-12-05T05:51:02.501Z,100176.94
2022-12-05T05:52:05.616Z,100175.56
2022-12-05T05:53:08.703Z,100177.25
2022-12-05T05:54:11.452Z,100172.84
2022-12-05T05:55:13.151Z,100172.16
2022-12-05T05:56:21.426Z,100175.84
2022-12-05T05:57:23.807Z,100174.00
2022-12-05T05:58:26.593Z,100175.56
2022-12-05T05:59:28.368Z,100183.69
2022-12-05T06:00:31.020Z,100179.28
2022-12-05T06:01:32.912Z,100178.56
2022-12-05T06:02:36.432Z,100185.38
2022-12-05T06:03:38.653Z,100196.94
2022-12-05T06:04:41.595Z,100188.78
2022-12-05T06:05:44.120Z,100189.78
2022-12-05T06:06:48.090Z,100192.50
2022-12-05T06:07:50.879Z,100198.63
2022-12-05T06:08:54.721Z,100192.19
2022-12-05T06:09:58.098Z,100192.72
2022-12-05T06:11:00.261Z,100194.78
2022-12-05T06:12:02.960Z,100197.88
2022-12-05T06:13:04.635Z,100203.00
2022-12-05T06:14:07.353Z,100201.16
2022-12-05T06:15:10.061Z,100202.81
2022-12-05T06:16:14.707Z,100205.38
2022-12-05T06:17:17.464Z,100209.97
2022-12-05T06:18:19.105Z,100211.66
2022-12-05T06:19:21.870Z,100212.53
2022-12-05T06:20:23.617Z,100211.50
2022-12-05T06:21:26.306Z,100207.75
2022-12-05T06:22:28.061Z,100210.66
2022-12-05T06:23:30.973Z,100217.81
2022-12-05T06:24:34.304Z,100212.38
2022-12-05T06:25:37.048Z,100213.69
2022-12-05T06:26:39.042Z,100216.88
2022-12-05T06:27:42.200Z,100208.91
2022-12-05T06:28:44.511Z,100216.03
2022-12-05T06:29:47.273Z,100207.72
2022-12-05T06:30:48.955Z,100211.28
2022-12-05T06:31:51.752Z,100221.66
2022-12-05T06:32:53.615Z,100218.31
2022-12-05T06:33:56.286Z,100213.56
2022-12-05T06:34:58.990Z,100218.69
2022-12-05T06:36:06.148Z,100219.91
2022-12-05T06:37:09.106Z,100218.06
2022-12-05T06:38:10.835Z,100218.72
2022-12-05T06:39:13.811Z,100214.84
2022-12-05T06:40:16.886Z,100224.53
2022-12-05T06:41:21.019Z,100217.38
2022-12-05T06:42:22.733Z,100224.88
2022-12-05T06:43:25.496Z,100225.88
2022-12-05T06:44:29.037Z,100224.00
2022-12-05T06:45:30.878Z,100226.19
2022-12-05T06:46:33.594Z,100224.31
2022-12-05T06:47:35.279Z,100228.06
2022-12-05T06:48:37.917Z,100231.44
2022-12-05T06:49:40.575Z,100235.72
2022-12-05T06:50:48.514Z,100232.81
2022-12-05T06:51:51.315Z,100232.66
2022-12-05T06:52:52.964Z,100238.09
2022-12-05T06:53:56.592Z,100238.09
2022-12-05T06:54:59.815Z,100240.66
2022-12-05T06:56:04.599Z,100241.03
2022-12-05T06:57:07.625Z,100236.28
2022-12-05T06:58:09.323Z,100245.13
2022-12-05T06:59:12.042Z,100244.44
2022-12-05T07:00:33.715Z,100241.72
2022-12-05T07:01:42.384Z,100251.22
2022-12-05T07:02:45.502Z,100249.91
2022-12-05T07:03:48.912Z,100243.31
2022-12-05T07:04:51.747Z,100250.13
2022-12-05T07:05:53.449Z,100245.22
2022-12-05T07:06:56.429Z,100247.94
2022-12-05T07:07:58.294Z,100249.84
2022-12-05T07:09:01.307Z,100242.69
2022-12-05T07:10:04.187Z,100246.72
2022-12-05T07:11:08.473Z,100250.31
2022-12-05T07:12:10.271Z,100252.31
2022-12-05T07:13:15.574Z,100252.31
2022-12-05T07:14:48.500Z,100245.88
2022-12-05T07:15:41.904Z,100253.69
2022-12-05T07:16:44.118Z,100249.28
2022-12-05T07:17:47.926Z,100269.16
2022-12-05T07:18:50.213Z,100264.56
2022-12-05T07:19:54.119Z,100258.28
2022-12-05T07:21:11.746Z,100259.13
2022-12-05T07:22:16.094Z,100260.84
2022-12-05T07:23:18.203Z,100268.84
2022-12-05T07:24:20.852Z,100265.94
2022-12-05T07:25:23.410Z,100265.78
2022-12-05T07:26:27.462Z,100264.59
2022-12-05T07:27:29.268Z,100266.16
2022-12-05T07:28:31.963Z,100272.09
2022-12-05T07:29:34.745Z,100272.81
2022-12-05T07:30:37.427Z,100269.91
2022-12-05T07:31:40.420Z,100270.94
2022-12-05T07:32:42.205Z,100277.38
2022-12-05T07:33:45.455Z,100271.81
2022-12-05T07:34:53.547Z,100272.47
2022-12-05T07:36:00.929Z,100268.91
2022-12-05T07:37:03.738Z,100269.75
2022-12-05T07:38:05.417Z,100280.28
2022-12-05T07:39:08.126Z,100273.84
2022-12-05T07:40:11.372Z,100269.75
2022-12-05T07:41:16.883Z,100271.47
2022-12-05T07:42:21.005Z,100271.63
2022-12-05T07:43:22.867Z,100276.38
2022-12-05T07:44:25.590Z,100282.97
2022-12-05T07:45:27.387Z,100270.25
2022-12-05T07:46:30.859Z,100286.41
2022-12-05T07:47:32.667Z,100280.97
2022-12-05T07:48:35.640Z,100290.13
2022-12-05T07:49:38.408Z,100293.16
2022-12-05T07:50:40.122Z,100289.22
2022-12-05T07:51:42.946Z,100290.22
2022-12-05T07:52:45.654Z,100292.25
2022-12-05T07:53:47.780Z,100300.25
2022-12-05T07:54:50.452Z,100297.53
2022-12-05T07:55:52.178Z,100295.66
2022-12-05T07:56:55.062Z,100298.53
2022-12-05T07:57:58.078Z,100304.66
2022-12-05T07:59:01.279Z,100298.53
2022-12-05T08:00:04.690Z,100297.16
2022-12-05T08:01:08.484Z,100303.59
2022-12-05T08:02:11.341Z,100299.88
2022-12-05T08:03:13.079Z,100307.47
2022-12-05T08:04:16.200Z,100303.91
2022-12-05T08:05:19.034Z,100307.63
2022-12-05T08:06:24.109Z,100307.94
2022-12-05T08:07:26.797Z,100301.81
2022-12-05T08:08:28.471Z,100306.38
2022-12-05T08:09:31.185Z,100295.53
2022-12-05T08:10:34.539Z,100294.28
2022-12-05T08:11:38.210Z,100299.56
2022-12-05T08:12:40.938Z,100310.28
2022-12-05T08:13:45.614Z,100306.19
2022-12-05T08:14:47.300Z,100304.81
2022-12-05T08:15:50.554Z,100301.91
2022-12-05T08:16:53.387Z,100309.53
2022-12-05T08:17:55.230Z,100304.09
2022-12-05T08:18:59.130Z,100315.97
2022-12-05T08:20:00.884Z,100313.25
2022-12-05T08:21:03.893Z,100312.59
2022-12-05T08:22:06.714Z,100307.97
2022-12-05T08:23:09.419Z,100320.53
2022-12-05T08:24:11.420Z,100316.13
2022-12-05T08:25:14.124Z,100316.13
2022-12-05T08:26:18.126Z,100315.97
2022-12-05T08:27:20.806Z,100320.72
2022-12-05T08:28:22.558Z,100313.09
2022-12-05T08:29:26.665Z,100314.50
2022-12-05T08:30:29.405Z,100319.78
2022-12-05T08:31:33.537Z,100313.88
2022-12-05T08:32:36.248Z,100317.44
2022-12-05T08:33:39.016Z,100321.34
2022-12-05T08:34:41.883Z,100319.81
2022-12-05T08:35:43.580Z,100321.69
2022-12-05T08:36:46.656Z,100318.09
2022-12-05T08:37:48.337Z,100328.66
2022-12-05T08:38:51.040Z,100337.50
2022-12-05T08:39:52.788Z,100332.91
2022-12-05T08:40:55.531Z,100331.91
2022-12-05T08:41:59.835Z,100337.91
2022-12-05T08:43:01.597Z,100334.31
2022-12-05T08:44:06.540Z,100336.88
2022-12-05T08:45:11.380Z,100339.75
2022-12-05T08:46:13.234Z,100341.91
2022-12-05T08:47:15.985Z,100347.75
2022-12-05T08:48:18.833Z,100341.63
2022-12-05T08:49:21.483Z,100349.75
2022-12-05T08:50:24.248Z,100345.72
2022-12-05T08:51:27.049Z,100342.00
2022-12-05T08:52:29.791Z,100354.91
2022-12-05T08:53:31.532Z,100347.75
2022-12-05T08:54:34.265Z,100356.91
2022-12-05T08:55:35.985Z,100358.63
2022-12-05T08:56:39.546Z,100356.91
2022-12-05T08:57:42.247Z,100358.34
2022-12-05T08:58:43.956Z,100361.06
2022-12-05T08:59:46.750Z,100362.41
2022-12-05T09:00:50.971Z,100359.38
2022-12-05T09:01:53.673Z,100360.78
2022-12-05T09:02:55.464Z,100361.78
2022-12-05T09:03:58.693Z,100360.63
2022-12-05T09:05:13.685Z,100365.91
2022-12-05T09:06:25.655Z,100364.38
2022-12-05T09:07:29.086Z,100369.41
2022-12-05T09:08:31.049Z,100365.13
2022-12-05T09:09:33.758Z,100371.06
2022-12-05T09:10:35.475Z,100362.94
2022-12-05T09:11:41.482Z,100361.41
2022-12-05T09:12:44.180Z,100364.97
2022-12-05T09:13:46.889Z,100361.25
2022-12-05T09:14:49.531Z,100363.97
2022-12-05T09:15:52.618Z,100363.97
2022-12-05T09:16:55.351Z,100362.06
2022-12-05T09:17:57.171Z,100362.06
2022-12-05T09:19:00.331Z,100365.50
2022-12-05T09:20:02.427Z,100373.19
2022-12-05T09:21:08.657Z,100372.53
2022-12-05T09:22:11.368Z,100363.19
2022-12-05T09:23:16.036Z,100364.56
2022-12-05T09:24:19.011Z,100363.72
2022-12-05T09:25:21.925Z,100364.56
2022-12-05T09:26:25.003Z,100371.00
2022-12-05T09:27:29.366Z,100371.72
2022-12-05T09:28:31.378Z,100367.00
2022-12-05T09:29:34.152Z,100372.94
2022-12-05T09:30:35.893Z,100378.38
2022-12-05T09:31:43.055Z,100374.09
2022-12-05T09:32:46.075Z,100372.56
2022-12-05T09:33:48.737Z,100372.09
2022-12-05T09:34:51.477Z,100376.53
2022-12-05T09:35:53.191Z,100377.19
2022-12-05T09:37:10.548Z,100376.19
2022-12-05T09:38:20.559Z,100378.75
2022-12-05T09:39:23.449Z,100368.56
2022-12-05T09:40:25.250Z,100376.41
2022-12-05T09:42:02.795Z,100374.06
2022-12-05T09:43:07.347Z,100374.59
2022-12-05T09:44:13.675Z,100374.25
2022-12-05T09:45:20.075Z,100369.69
2022-12-05T09:46:35.325Z,100381.63
2022-12-05T09:47:47.456Z,100375.84
2022-12-05T09:48:50.336Z,100379.94
2022-12-05T09:49:55.960Z,100371.50
2022-12-05T09:51:00.535Z,100378.44
2022-12-05T09:52:03.783Z,100378.09
2022-12-05T09:53:11.998Z,100374.88
2022-12-05T09:54:14.372Z,100372.66
2022-12-05T09:55:19.101Z,100378.94
2022-12-05T09:56:24.753Z,100374.69
2022-12-05T09:57:40.759Z,100374.34
2022-12-05T09:58:44.014Z,100377.22
2022-12-05T09:59:46.703Z,100371.78
2022-12-05T10:00:49.859Z,100376.06
2022-12-05T10:01:58.565Z,100375.88
2022-12-05T10:03:11.021Z,100379.31
2022-12-05T10:04:22.973Z,100378.09
2022-12-05T10:05:29.504Z,100372.78
2022-12-05T10:06:36.294Z,100367.69
2022-12-05T10:07:42.472Z,100368.69
2022-12-05T10:09:08.811Z,100373.13
2022-12-05T10:10:27.965Z,100364.97
2022-12-05T10:11:36.420Z,100367.34
2022-12-05T10:12:46.914Z,100364.34
2022-12-05T10:13:53.492Z,100367.72
2022-12-05T10:15:00.684Z,100357.72
2022-12-05T10:16:07.620Z,100365.72
2022-12-05T10:17:22.392Z,100358.41
2022-12-05T10:18:38.509Z,100362.34
2022-12-05T10:19:44.397Z,100361.66
2022-12-05T10:20:55.783Z,100360.13
2022-12-05T10:22:01.275Z,100367.25
2022-12-05T10:23:05.589Z,100367.41
2022-12-05T10:24:14.082Z,100365.72
2022-12-05T10:25:20.280Z,100372.16
2022-12-05T10:26:23.048Z,100368.06
2022-12-05T10:27:32.108Z,100366.03
2022-12-05T10:28:41.571Z,100360.63
2022-12-05T10:29:46.772Z,100361.28
2022-12-05T10:30:50.694Z,100360.28
2022-12-05T10:31:56.776Z,100363.00
2022-12-05T10:33:01.791Z,100365.34
2022-12-05T10:34:15.011Z,100359.91
2022-12-05T10:35:19.513Z,100356.84
2022-12-05T10:36:22.162Z,100365.72
2022-12-05T10:37:24.195Z,100354.50
2022-12-05T10:38:28.994Z,100359.94
2022-12-05T10:39:31.885Z,100357.91
2022-12-05T10:40:36.216Z,100368.47
2022-12-05T10:41:39.011Z,100354.00
2022-12-05T10:42:41.783Z,100364.72
2022-12-05T10:43:48.168Z,100359.44
2022-12-05T10:44:52.159Z,100358.59
2022-12-05T10:45:54.161Z,100361.00
2022-12-05T10:46:57.096Z,100363.38
2022-12-05T10:47:58.947Z,100364.25
2022-12-05T10:49:02.012Z,100365.09
2022-12-05T10:50:07.733Z,100364.75
2022-12-05T10:51:14.312Z,100367.28
2022-12-05T10:52:16.819Z,100361.53
2022-12-05T10:53:22.906Z,100366.97
2022-12-05T10:54:27.612Z,100366.28
2022-12-05T10:55:33.579Z,100367.78
2022-12-05T10:56:44.776Z,100361.31
2022-12-05T10:57:52.073Z,100366.75
2022-12-05T10:58:59.371Z,100355.53
2022-12-05T11:00:12.870Z,100356.38
2022-12-05T11:01:17.088Z,100359.94
2022-12-05T11:02:25.041Z,100354.34
2022-12-05T11:03:29.455Z,100350.09
2022-12-05T11:04:33.427Z,100360.13
2022-12-05T11:05:37.762Z,100352.81
2022-12-05T11:06:49.260Z,100354.81
2022-12-05T11:07:52.264Z,100349.53
2022-12-05T11:09:05.451Z,100359.22
2022-12-05T11:10:26.343Z,100359.22
2022-12-05T11:11:33.374Z,100362.78
2022-12-05T11:12:39.558Z,100353.41
2022-12-05T11:13:51.877Z,100354.00
2022-12-05T11:14:57.239Z,100356.78
2022-12-05T11:16:00.405Z,100357.66
2022-12-05T11:17:06.203Z,100360.19
2022-12-05T11:18:20.015Z,100363.56
2022-12-05T11:19:27.757Z,100358.50
2022-12-05T11:20:38.139Z,100353.38
2022-12-05T11:21:43.614Z,100357.06
2022-12-05T11:22:48.888Z,100358.13
2022-12-05T11:23:51.845Z,100356.72
2022-12-05T11:24:53.710Z,100353.19
2022-12-05T11:25:57.224Z,100354.50
2022-12-05T11:27:01.692Z,100349.53
2022-12-05T11:28:25.998Z,100357.53
2022-12-05T11:29:34.779Z,100353.50
2022-12-05T11:30:38.732Z,100352.34
2022-12-05T11:31:41.645Z,100357.09
2022-12-05T11:32:43.590Z,100356.09
2022-12-05T11:34:02.384Z,100353.06
2022-12-05T11:35:13.968Z,100352.16
2022-12-05T11:36:20.230Z,100356.25
2022-12-05T11:37:26.532Z,100360.84
2022-12-05T11:38:32.303Z,100361.22
2022-12-05T11:39:35.210Z,100358.16
2022-12-05T11:40:39.818Z,100356.31
2022-12-05T11:42:03.692Z,100361.75
2022-12-05T11:43:23.882Z,100360.03
2022-12-05T11:44:40.546Z,100360.72
2022-12-05T11:45:55.246Z,100368.34
2022-12-05T11:47:05.360Z,100371.06
2022-12-05T11:48:26.293Z,100369.19
2022-12-05T11:49:41.651Z,100362.22
2022-12-05T11:50:50.974Z,100363.75
2022-12-05T11:52:02.353Z,100360.66
2022-12-05T11:53:21.916Z,100360.19
2022-12-05T11:55:04.636Z,100356.13
2022-12-05T11:56:12.931Z,100348.66
2022-12-05T11:57:19.796Z,100355.81
2022-12-05T11:58:44.245Z,100358.53
2022-12-05T12:00:07.279Z,100351.06
2022-12-05T12:01:18.324Z,100352.09
2022-12-05T12:02:30.657Z,100352.59
2022-12-05T12:04:00.727Z,100351.75
2022-12-05T12:05:09.278Z,100355.00
2022-12-05T12:06:26.658Z,100354.63
2022-12-05T12:07:40.999Z,100350.75
2022-12-05T12:08:53.285Z,100353.13
2022-12-05T12:10:08.328Z,100360.97
2022-12-05T12:11:19.718Z,100355.69
2022-12-05T12:12:27.207Z,100351.13
2022-12-05T12:13:43.838Z,100349.41
2022-12-05T12:14:50.292Z,100348.53
2022-12-05T12:16:05.178Z,100353.13
2022-12-05T12:17:22.164Z,100356.84
2022-12-05T12:18:41.915Z,100354.13
2022-12-05T12:19:54.395Z,100350.75
2022-12-05T12:21:05.538Z,100354.63
2022-12-05T12:22:37.624Z,100353.47
2022-12-05T12:23:53.698Z,100351.59
2022-12-05T12:25:12.498Z,100357.34
2022-12-05T12:26:19.131Z,100359.91
2022-12-05T12:27:31.859Z,100357.03
2022-12-05T12:28:41.181Z,100349.38